createdAt,value
2022-11-30T00:01:13.609Z,4.60
2022-11-30T00:03:40.340Z,4.50
2022-11-30T00:06:07.913Z,4.50
2022-11-30T00:08:34.825Z,4.50
2022-11-30T00:11:07.220Z,4.50
2022-11-30T00:13:33.921Z,4.50
2022-11-30T00:16:01.577Z,4.40
2022-11-30T00:18:28.311Z,4.50
2022-11-30T00:20:55.557Z,4.50
2022-11-30T00:23:22.211Z,4.50
2022-11-30T00:25:48.897Z,4.50
2022-11-30T00:28:15.572Z,4.50
2022-11-30T00:30:42.276Z,4.50
2022-11-30T00:33:08.942Z,4.50
2022-11-30T00:35:35.818Z,4.50
2022-11-30T00:38:03.303Z,4.40
2022-11-30T00:40:30.036Z,4.40
2022-11-30T00:42:56.664Z,4.40
2022-11-30T00:45:23.282Z,4.40
2022-11-30T00:47:49.876Z,4.40
2022-11-30T00:50:16.827Z,4.40
2022-11-30T00:52:43.693Z,4.40
2022-11-30T00:55:10.336Z,4.40
2022-11-30T00:57:37.044Z,4.40
2022-11-30T01:00:04.141Z,4.40
2022-11-30T01:02:31.026Z,4.40
2022-11-30T01:04:57.700Z,4.40
2022-11-30T01:07:24.455Z,4.40
2022-11-30T01:09:51.173Z,4.40
2022-11-30T01:12:17.804Z,4.40
2022-11-30T01:14:44.812Z,4.40
2022-11-30T01:17:11.710Z,4.40
2022-11-30T01:19:38.377Z,4.40
2022-11-30T01:22:04.958Z,4.40
2022-11-30T01:24:31.665Z,4.40
2022-11-30T01:26:58.266Z,4.40
2022-11-30T01:29:41.325Z,4.50
2022-11-30T01:32:08.097Z,4.40
2022-11-30T01:34:34.792Z,4.40
2022-11-30T01:37:01.437Z,4.40
2022-11-30T01:39:28.204Z,4.40
2022-11-30T01:41:55.119Z,4.40
2022-11-30T01:44:27.044Z,4.40
2022-11-30T01:46:53.680Z,4.40
2022-11-30T01:49:23.242Z,4.40
2022-11-30T01:51:57.197Z,4.40
2022-11-30T01:54:26.560Z,4.40
2022-11-30T01:57:07.127Z,4.40
2022-11-30T01:59:34.091Z,4.40
2022-11-30T02:02:00.731Z,4.40
2022-11-30T02:04:32.585Z,4.40
2022-11-30T02:07:08.201Z,4.30
2022-11-30T02:09:44.433Z,4.40
2022-11-30T02:12:37.589Z,4.40
2022-11-30T02:15:07.274Z,4.40
2022-11-30T02:17:34.159Z,4.40
2022-11-30T02:20:19.704Z,4.40
2022-11-30T02:22:46.429Z,4.40
2022-11-30T02:25:31.947Z,4.40
2022-11-30T02:28:24.346Z,4.40
2022-11-30T02:30:52.259Z,4.40
2022-11-30T02:33:25.266Z,4.40
2022-11-30T02:35:55.236Z,4.30
2022-11-30T02:38:22.832Z,4.30
2022-11-30T02:40:49.475Z,4.30
2022-11-30T02:43:17.258Z,4.30
2022-11-30T02:45:46.605Z,4.40
2022-11-30T02:48:14.874Z,4.40
2022-11-30T02:50:44.377Z,4.50
2022-11-30T02:53:11.096Z,4.50
2022-11-30T02:55:37.750Z,4.50
2022-11-30T02:58:04.381Z,4.50
2022-11-30T03:00:31.218Z,4.40
2022-11-30T03:03:16.375Z,4.40
2022-11-30T03:05:43.067Z,4.40
2022-11-30T03:08:09.804Z,4.40
2022-11-30T03:10:36.369Z,4.40
2022-11-30T03:13:02.972Z,4.40
2022-11-30T03:15:29.594Z,4.30
2022-11-30T03:17:56.301Z,4.30
2022-11-30T03:20:22.925Z,4.30
2022-11-30T03:22:49.536Z,4.30
2022-11-30T03:25:16.181Z,4.30
2022-11-30T03:27:42.939Z,4.30
2022-11-30T03:30:09.821Z,4.30
2022-11-30T03:32:36.461Z,4.30
2022-11-30T03:35:03.180Z,4.30
2022-11-30T03:37:29.794Z,4.30
2022-11-30T03:39:58.382Z,4.40
2022-11-30T03:42:25.329Z,4.40
2022-11-30T03:44:51.937Z,4.40
2022-11-30T03:47:18.560Z,4.50
2022-11-30T03:49:45.194Z,4.50
2022-11-30T03:52:11.911Z,4.50
2022-11-30T03:54:38.601Z,4.50
2022-11-30T03:57:05.256Z,4.50
2022-11-30T03:59:31.963Z,4.40
2022-11-30T04:01:58.703Z,4.40
2022-11-30T04:04:25.372Z,4.40
2022-11-30T04:06:51.983Z,4.40
2022-11-30T04:09:18.616Z,4.40
2022-11-30T04:11:45.272Z,4.40
2022-11-30T04:14:12.138Z,4.40
2022-11-30T04:16:38.806Z,4.40
2022-11-30T04:19:05.457Z,4.40
2022-11-30T04:21:32.176Z,4.40
2022-11-30T04:23:58.810Z,4.40
2022-11-30T04:26:25.461Z,4.30
2022-11-30T04:28:52.055Z,4.30
2022-11-30T04:31:18.765Z,4.30
2022-11-30T04:33:45.386Z,4.30
2022-11-30T04:36:19.699Z,4.30
2022-11-30T04:38:46.800Z,4.30
2022-11-30T04:41:13.473Z,4.30
2022-11-30T04:43:40.244Z,4.30
2022-11-30T04:46:06.928Z,4.40
2022-11-30T04:48:33.719Z,4.40
2022-11-30T04:51:05.826Z,4.40
2022-11-30T04:53:32.890Z,4.40
2022-11-30T04:55:59.565Z,4.40
2022-11-30T04:58:26.260Z,4.30
2022-11-30T05:00:56.029Z,4.30
2022-11-30T05:03:22.858Z,4.30
2022-11-30T05:05:49.489Z,4.30
2022-11-30T05:08:16.167Z,4.30
2022-11-30T05:10:42.801Z,4.40
2022-11-30T05:13:09.455Z,4.40
2022-11-30T05:15:36.050Z,4.30
2022-11-30T05:18:02.706Z,4.30
2022-11-30T05:20:29.360Z,4.30
2022-11-30T05:22:56.054Z,4.30
2022-11-30T05:25:22.761Z,4.30
2022-11-30T05:27:49.405Z,4.30
2022-11-30T05:30:16.301Z,4.30
2022-11-30T05:32:42.982Z,4.30
2022-11-30T05:35:09.918Z,4.30
2022-11-30T05:37:36.626Z,4.30
2022-11-30T05:40:03.476Z,4.30
2022-11-30T05:42:30.244Z,4.30
2022-11-30T05:44:57.033Z,4.30
2022-11-30T05:47:23.856Z,4.30
2022-11-30T05:49:50.437Z,4.30
2022-11-30T05:52:17.108Z,4.30
2022-11-30T05:54:43.751Z,4.30
2022-11-30T05:57:10.365Z,4.30
2022-11-30T05:59:37.001Z,4.30
2022-11-30T06:02:03.799Z,4.20
2022-11-30T06:04:30.673Z,4.20
2022-11-30T06:07:21.166Z,4.20
2022-11-30T06:09:47.807Z,4.20
2022-11-30T06:12:14.488Z,4.10
2022-11-30T06:14:41.094Z,4.10
2022-11-30T06:17:07.764Z,4.10
2022-11-30T06:19:34.901Z,4.10
2022-11-30T06:22:01.510Z,4.10
2022-11-30T06:24:28.164Z,4.20
2022-11-30T06:26:54.810Z,4.10
2022-11-30T06:29:21.841Z,4.10
2022-11-30T06:31:48.557Z,4.10
2022-11-30T06:34:15.333Z,4.10
2022-11-30T06:36:41.975Z,4.10
2022-11-30T06:39:11.605Z,4.10
2022-11-30T06:41:38.379Z,4.10
2022-11-30T06:44:11.289Z,4.10
2022-11-30T06:46:37.980Z,4.10
2022-11-30T06:49:04.673Z,4.10
2022-11-30T06:51:31.300Z,4.10
2022-11-30T06:53:57.998Z,4.00
2022-11-30T06:56:24.760Z,4.00
2022-11-30T06:58:52.465Z,4.00
2022-11-30T07:01:19.150Z,4.00
2022-11-30T07:03:45.933Z,4.00
2022-11-30T07:06:13.344Z,4.00
2022-11-30T07:08:40.846Z,4.00
2022-11-30T07:11:08.704Z,4.00
2022-11-30T07:13:37.481Z,4.10
2022-11-30T07:16:05.364Z,4.10
2022-11-30T07:18:32.840Z,4.00
2022-11-30T07:21:00.808Z,4.00
2022-11-30T07:23:49.490Z,4.00
2022-11-30T07:26:19.960Z,4.00
2022-11-30T07:28:46.832Z,4.00
2022-11-30T07:31:16.597Z,4.00
2022-11-30T07:33:43.738Z,4.00
2022-11-30T07:36:12.656Z,4.00
2022-11-30T07:38:39.672Z,4.00
2022-11-30T07:41:06.659Z,4.00
2022-11-30T07:43:33.269Z,4.10
2022-11-30T07:46:00.472Z,4.00
2022-11-30T07:48:27.235Z,4.00
2022-11-30T07:50:54.226Z,4.00
2022-11-30T07:53:20.866Z,4.10
2022-11-30T07:55:48.275Z,4.00
2022-11-30T07:58:17.560Z,4.00
2022-11-30T08:00:44.456Z,4.00
2022-11-30T08:03:11.190Z,4.00
2022-11-30T08:05:37.836Z,4.00
2022-11-30T08:08:04.579Z,4.00
2022-11-30T08:10:31.740Z,4.10
2022-11-30T08:12:58.388Z,4.10
2022-11-30T08:15:31.887Z,4.00
2022-11-30T08:18:00.255Z,4.10
2022-11-30T08:20:26.898Z,4.10
2022-11-30T08:22:53.495Z,4.10
2022-11-30T08:25:20.158Z,4.10
2022-11-30T08:27:46.881Z,4.10
2022-11-30T08:30:13.626Z,4.10
2022-11-30T08:32:40.403Z,4.20
2022-11-30T08:35:07.540Z,4.30
2022-11-30T08:37:36.243Z,4.30
2022-11-30T08:40:03.680Z,4.30
2022-11-30T08:42:30.425Z,4.30
2022-11-30T08:44:57.024Z,4.30
2022-11-30T08:47:23.735Z,4.20
2022-11-30T08:49:50.462Z,4.20
2022-11-30T08:52:18.401Z,4.30
2022-11-30T08:54:47.010Z,4.30
2022-11-30T08:57:26.768Z,4.30
2022-11-30T08:59:53.408Z,4.30
2022-11-30T09:02:20.179Z,4.30
2022-11-30T09:04:48.941Z,4.40
2022-11-30T09:07:16.029Z,4.40
2022-11-30T09:09:42.723Z,4.40
2022-11-30T09:12:09.428Z,4.40
2022-11-30T09:14:36.379Z,4.40
2022-11-30T09:17:03.102Z,4.40
2022-11-30T09:19:29.810Z,4.50
2022-11-30T09:21:56.501Z,4.50
2022-11-30T09:24:23.227Z,4.50
2022-11-30T09:26:49.990Z,4.60
2022-11-30T09:29:16.583Z,4.60
2022-11-30T09:31:43.296Z,4.60
2022-11-30T09:34:11.149Z,4.60
2022-11-30T09:36:37.885Z,4.60
2022-11-30T09:39:04.487Z,4.60
2022-11-30T09:41:34.168Z,4.60
2022-11-30T09:44:24.593Z,4.60
2022-11-30T09:47:10.178Z,4.70
2022-11-30T09:49:41.498Z,4.80
2022-11-30T09:52:17.866Z,4.90
2022-11-30T09:54:45.495Z,4.90
2022-11-30T09:57:29.932Z,4.80
2022-11-30T10:00:28.518Z,4.90
2022-11-30T10:02:57.271Z,4.90
2022-11-30T10:05:42.840Z,5.00
2022-11-30T10:08:10.023Z,4.90
2022-11-30T10:11:03.175Z,5.00
2022-11-30T10:13:42.036Z,5.00
2022-11-30T10:16:38.070Z,5.10
2022-11-30T10:19:23.213Z,5.10
2022-11-30T10:22:01.973Z,5.10
2022-11-30T10:24:28.669Z,5.10
2022-11-30T10:26:56.537Z,5.20
2022-11-30T10:29:30.642Z,5.20
2022-11-30T10:32:10.691Z,5.20
2022-11-30T10:35:02.305Z,5.30
2022-11-30T10:37:37.153Z,5.30
2022-11-30T10:40:16.307Z,5.40
2022-11-30T10:42:51.395Z,5.30
2022-11-30T11:00:24.608Z,5.50
2022-11-30T11:02:56.503Z,5.50
2022-11-30T11:05:25.435Z,5.60
2022-11-30T11:07:55.244Z,5.60
2022-11-30T11:10:32.266Z,5.60
2022-11-30T11:16:16.890Z,5.50
2022-11-30T11:18:55.485Z,5.60
2022-11-30T11:21:25.508Z,5.60
2022-11-30T11:24:09.094Z,5.60
2022-11-30T11:26:36.424Z,5.70
2022-11-30T11:29:04.846Z,5.70
2022-11-30T11:32:07.810Z,5.80
2022-11-30T11:35:16.829Z,5.80
2022-11-30T11:37:54.614Z,5.80
2022-11-30T11:40:41.592Z,5.80
2022-11-30T11:43:28.943Z,5.80
2022-11-30T11:46:06.328Z,5.90
2022-11-30T11:48:46.769Z,5.90
2022-11-30T11:51:36.477Z,5.90
2022-11-30T11:54:35.407Z,6.10
2022-11-30T11:57:02.312Z,6.10
2022-11-30T11:59:40.116Z,6.10
2022-11-30T12:02:25.666Z,6.20
2022-11-30T12:04:59.208Z,6.30
2022-11-30T12:07:38.817Z,6.30
2022-11-30T12:10:49.969Z,6.30
2022-11-30T12:13:11.670Z,6.30
2022-11-30T12:15:49.439Z,6.20
2022-11-30T12:18:24.620Z,6.20
2022-11-30T12:20:58.879Z,6.20
2022-11-30T12:23:44.827Z,6.10
2022-11-30T12:26:18.570Z,6.00
2022-11-30T12:29:09.074Z,5.90
2022-11-30T12:31:46.762Z,6.00
2022-11-30T12:34:27.839Z,6.00
2022-11-30T12:37:13.460Z,5.80
2022-11-30T12:40:09.634Z,5.80
2022-11-30T12:42:45.348Z,5.90
2022-11-30T12:45:38.263Z,5.90
2022-11-30T12:48:20.678Z,5.80
2022-11-30T12:50:59.523Z,5.80
2022-11-30T12:53:29.269Z,5.70
2022-11-30T12:56:14.828Z,5.60
2022-11-30T12:58:44.519Z,5.60
2022-11-30T13:01:29.699Z,5.50
2022-11-30T13:04:02.465Z,5.40
2022-11-30T13:06:31.899Z,5.40
2022-11-30T13:09:02.990Z,5.40
2022-11-30T13:11:40.312Z,5.40
2022-11-30T13:14:12.998Z,5.40
2022-11-30T13:16:40.416Z,5.40
2022-11-30T13:19:30.550Z,5.40
2022-11-30T13:21:59.780Z,5.30
2022-11-30T13:24:29.237Z,5.30
2022-11-30T13:27:08.423Z,5.30
2022-11-30T13:29:54.020Z,5.30
2022-11-30T13:35:26.156Z,5.30
2022-11-30T13:38:34.502Z,5.30
2022-11-30T13:40:56.821Z,5.40
2022-11-30T13:43:24.106Z,5.30
2022-11-30T13:46:01.809Z,5.30
2022-11-30T13:48:36.380Z,5.30
2022-11-30T13:51:03.328Z,5.30
2022-11-30T13:53:34.136Z,5.40
2022-11-30T13:56:02.189Z,5.40
2022-11-30T13:58:29.735Z,5.30
2022-11-30T14:01:01.524Z,5.30
2022-11-30T14:03:29.556Z,5.30
2022-11-30T14:05:56.987Z,5.30
2022-11-30T14:08:23.603Z,5.30
2022-11-30T14:10:54.681Z,5.30
2022-11-30T14:13:22.779Z,5.30
2022-11-30T14:15:54.327Z,5.20
2022-11-30T14:18:24.145Z,5.20
2022-11-30T14:20:54.091Z,5.10
2022-11-30T14:23:39.238Z,5.10
2022-11-30T14:26:11.077Z,5.00
2022-11-30T14:28:53.856Z,5.00
2022-11-30T14:31:54.658Z,4.90
2022-11-30T14:34:23.499Z,4.90
2022-11-30T14:37:03.707Z,4.90
2022-11-30T15:01:54.495Z,4.50
2022-11-30T15:04:21.189Z,4.40
2022-11-30T15:06:47.918Z,4.40
2022-11-30T15:09:16.544Z,4.40
2022-11-30T15:11:45.465Z,4.40
2022-11-30T15:14:12.074Z,4.40
2022-11-30T15:16:45.982Z,4.40
2022-11-30T15:19:20.098Z,4.30
2022-11-30T15:21:47.335Z,4.30
2022-11-30T15:24:14.096Z,4.30
2022-11-30T15:26:50.079Z,4.30
2022-11-30T15:29:31.115Z,4.30
2022-11-30T15:31:59.157Z,4.30
2022-11-30T15:34:25.793Z,4.20
2022-11-30T15:36:56.382Z,4.20
2022-11-30T15:39:24.291Z,4.20
2022-11-30T15:41:55.355Z,4.10
2022-11-30T15:44:24.010Z,4.10
2022-11-30T15:46:58.236Z,4.10
2022-11-30T15:49:28.884Z,4.10
2022-11-30T15:52:00.140Z,4.10
2022-11-30T15:54:47.108Z,4.10
2022-11-30T15:57:14.293Z,4.10
2022-11-30T15:59:41.162Z,4.00
2022-11-30T16:02:24.202Z,4.00
2022-11-30T16:04:56.877Z,4.00
2022-11-30T16:07:38.344Z,4.00
2022-11-30T16:10:06.587Z,4.00
2022-11-30T16:12:33.381Z,4.00
2022-11-30T16:15:00.108Z,4.00
2022-11-30T16:17:28.180Z,4.00
2022-11-30T16:19:54.893Z,4.00
2022-11-30T16:22:21.559Z,4.00
2022-11-30T16:24:48.311Z,4.00
2022-11-30T16:27:17.399Z,3.90
2022-11-30T16:29:49.133Z,3.80
2022-11-30T16:32:19.345Z,3.80
2022-11-30T16:34:48.282Z,3.70
2022-11-30T16:37:14.995Z,3.70
2022-11-30T16:39:41.635Z,3.70
2022-11-30T16:42:11.569Z,3.60
2022-11-30T16:44:38.239Z,3.70
2022-11-30T16:47:04.843Z,3.60
2022-11-30T16:49:31.527Z,3.60
2022-11-30T16:51:58.128Z,3.60
2022-11-30T16:54:24.850Z,3.60
2022-11-30T16:56:51.592Z,3.60
2022-11-30T16:59:18.193Z,3.60
2022-11-30T17:01:47.052Z,3.60
2022-11-30T17:04:19.298Z,3.50
2022-11-30T17:06:50.182Z,3.50
2022-11-30T17:09:17.773Z,3.60
2022-11-30T17:11:45.523Z,3.50
2022-11-30T17:14:12.876Z,3.50
2022-11-30T17:16:39.789Z,3.50
2022-11-30T17:19:07.622Z,3.50
2022-11-30T17:21:35.214Z,3.50
2022-11-30T17:24:02.258Z,3.50
2022-11-30T17:26:28.963Z,3.40
2022-11-30T17:28:55.680Z,3.40
2022-11-30T17:31:22.543Z,3.40
2022-11-30T17:33:49.394Z,3.30
2022-11-30T17:36:16.609Z,3.30
2022-11-30T17:38:45.719Z,3.30
2022-11-30T17:41:18.548Z,3.30
2022-11-30T17:43:46.018Z,3.20
2022-11-30T17:46:15.706Z,3.20
2022-11-30T17:48:43.272Z,3.20
2022-11-30T17:51:10.174Z,3.20
2022-11-30T17:53:37.809Z,3.10
2022-11-30T17:56:10.580Z,3.10
2022-11-30T17:58:43.924Z,3.00
2022-11-30T18:01:18.678Z,2.90
2022-11-30T18:03:45.494Z,2.90
2022-11-30T18:06:12.659Z,2.90
2022-11-30T18:08:40.204Z,2.80
2022-11-30T18:11:16.346Z,2.80
2022-11-30T18:13:47.764Z,2.80
2022-11-30T18:16:23.755Z,2.80
2022-11-30T18:19:07.408Z,2.80
2022-11-30T18:21:41.332Z,2.90
2022-11-30T18:40:00.957Z,2.90
2022-11-30T18:51:45.943Z,2.80
2022-11-30T19:04:39.003Z,2.70
2022-11-30T19:07:05.805Z,2.70
2022-11-30T19:09:32.555Z,2.70
2022-11-30T19:12:00.168Z,2.70
2022-11-30T19:14:26.928Z,2.70
2022-11-30T19:16:53.626Z,2.60
2022-11-30T19:19:21.678Z,2.70
2022-11-30T19:21:48.483Z,2.60
2022-11-30T19:24:15.680Z,2.60
2022-11-30T19:26:42.427Z,2.70
2022-11-30T19:29:11.044Z,2.70
2022-11-30T19:31:47.890Z,2.70
2022-11-30T19:34:14.623Z,2.70
2022-11-30T19:36:45.525Z,2.70
2022-11-30T19:39:12.233Z,2.70
2022-11-30T19:41:38.850Z,2.60
2022-11-30T19:44:05.549Z,2.60
2022-11-30T19:46:34.489Z,2.60
2022-11-30T19:49:01.835Z,2.70
2022-11-30T19:51:29.442Z,2.60
2022-11-30T19:53:57.440Z,2.50
2022-11-30T19:56:24.655Z,2.50
2022-11-30T19:58:51.505Z,2.50
2022-11-30T20:01:25.309Z,2.50
2022-11-30T20:03:52.899Z,2.40
2022-11-30T20:06:19.919Z,2.40
2022-11-30T20:08:46.842Z,2.40
2022-11-30T20:11:15.364Z,2.40
2022-11-30T20:13:42.815Z,2.40
2022-11-30T20:16:13.691Z,2.40
2022-11-30T20:18:45.744Z,2.40
2022-11-30T20:21:15.203Z,2.40
2022-11-30T20:23:42.913Z,2.40
2022-11-30T20:26:16.313Z,2.40
2022-11-30T20:28:43.145Z,2.40
2022-11-30T20:31:10.432Z,2.40
2022-11-30T20:33:37.726Z,2.30
2022-11-30T20:36:05.124Z,2.30
2022-11-30T20:38:31.995Z,2.40
2022-11-30T20:40:58.848Z,2.40
2022-11-30T20:43:26.096Z,2.40
2022-11-30T20:45:53.063Z,2.40
2022-11-30T20:48:19.935Z,2.40
2022-11-30T20:51:01.099Z,2.40
2022-11-30T20:53:34.110Z,2.40
2022-11-30T20:56:00.813Z,2.40
2022-11-30T20:58:28.470Z,2.50
2022-11-30T21:01:01.896Z,2.50
2022-11-30T21:03:28.631Z,2.50
2022-11-30T21:05:55.374Z,2.40
2022-11-30T21:08:22.124Z,2.50
2022-11-30T21:10:48.829Z,2.50
2022-11-30T21:13:15.526Z,2.50
2022-11-30T21:15:42.173Z,2.50
2022-11-30T21:18:09.004Z,2.50
2022-11-30T21:20:35.705Z,2.40
2022-11-30T21:23:02.372Z,2.40
2022-11-30T21:25:29.090Z,2.40
2022-11-30T21:27:56.214Z,2.40
2022-11-30T21:30:22.866Z,2.40
2022-11-30T21:32:49.502Z,2.50
2022-11-30T21:35:18.300Z,2.40
2022-11-30T21:37:44.935Z,2.40
2022-11-30T21:40:11.722Z,2.40
2022-11-30T21:42:43.958Z,2.40
2022-11-30T21:45:11.113Z,2.50
2022-11-30T21:47:37.949Z,2.50
2022-11-30T21:50:11.678Z,2.50
2022-11-30T21:52:38.494Z,2.50
2022-11-30T21:55:15.157Z,2.50
2022-11-30T21:57:45.224Z,2.50
2022-11-30T22:00:14.459Z,2.50
2022-11-30T22:05:35.442Z,2.50
2022-11-30T22:08:30.158Z,2.50
2022-11-30T22:11:00.987Z,2.60
2022-11-30T22:13:28.342Z,2.60
2022-11-30T22:16:02.430Z,2.60
2022-11-30T22:18:29.792Z,2.60
2022-11-30T22:21:04.692Z,2.50
2022-11-30T22:23:32.662Z,2.50
2022-11-30T22:26:13.532Z,2.60
2022-11-30T22:28:41.458Z,2.60
2022-11-30T22:31:09.042Z,2.60
2022-11-30T22:33:36.740Z,2.60
2022-11-30T22:36:04.134Z,2.60
2022-11-30T22:38:31.116Z,2.60
2022-11-30T22:41:08.120Z,2.50
2022-11-30T22:43:35.293Z,2.50
2022-11-30T22:46:06.172Z,2.50
2022-11-30T22:48:33.367Z,2.60
2022-11-30T22:51:07.679Z,2.50
2022-11-30T22:53:36.066Z,2.50
2022-11-30T22:56:06.994Z,2.50
2022-11-30T22:58:34.023Z,2.50
2022-11-30T23:01:11.095Z,2.50
2022-11-30T23:03:38.102Z,2.50
2022-11-30T23:06:05.156Z,2.50
2022-11-30T23:08:46.485Z,2.60
2022-11-30T23:11:15.473Z,2.60
2022-11-30T23:13:43.168Z,2.60
2022-11-30T23:16:10.570Z,2.60
2022-11-30T23:18:44.509Z,2.60
2022-11-30T23:21:12.229Z,2.60
2022-11-30T23:23:38.921Z,2.50
2022-11-30T23:26:10.617Z,2.50
2022-11-30T23:28:41.262Z,2.60
2022-11-30T23:31:33.822Z,2.50
2022-11-30T23:33:58.941Z,2.50
2022-11-30T23:36:25.777Z,2.60
2022-11-30T23:38:57.213Z,2.50
2022-11-30T23:41:24.486Z,2.50
2022-11-30T23:43:51.321Z,2.60
2022-11-30T23:46:18.173Z,2.60
2022-11-30T23:48:44.998Z,2.60
2022-11-30T23:51:14.021Z,2.60
2022-11-30T23:53:40.853Z,2.50
2022-11-30T23:56:09.578Z,2.60
2022-11-30T23:58:36.440Z,2.50
